Impacts TAF Board
For situational awareness. Not to be used for flight planning purposes.
IDs:

KIAH - Houston/Bush Intl, TX, US

Issued at 2325 UTC 23 May 2019
Updated at 0052 UTC 24 May 2019
Potential Impact None Slight Moderate High
Time0025Z 24/01Z 24/02Z 24/03Z 24/04Z 24/05Z 24/06Z 24/07Z 24/08Z 24/09Z 24/10Z 24/11Z 24/12Z 24/13Z>>
Type OBS PRVL PRVL PRVL PRVL PRVL PRVL PRVL PRVL PRVL PRVL PRVL PRVL PRVL
VIS 10 >6 >6 >6 >6 >6 >6 >6 >6 >6 >6 >6 >6 >6
CIG 32 25 20 20 20 20 20 20 18 18 18 18 18 18
Cover BKN BKN BKN BKN BKN BKN BKN BKN BKN BKN BKN BKN BKN BKN
FltCat VFR MVFR MVFR MVFR MVFR MVFR MVFR MVFR MVFR MVFR MVFR MVFR MVFR MVFR
WX -- VCSH -- -- -- -- -- -- -- -- -- -- -- --
WDir 130 140 140 140 140 140 140 140 150 150 150 150 150 150
WSpd 19 15 15 15 15 15 15 15 10 10 10 10 10 10
WGst -- 25 -- -- -- -- -- -- -- -- -- -- -- --
Raw TAF
KIAH 232325Z 2400/2506 14015G25KT P6SM VCSH BKN025 BKN040
  FM240200 14015KT P6SM BKN020
  FM240800 15010KT P6SM BKN018
  FM241600 15014G22KT P6SM SCT025 BKN035
  FM250200 14018G24KT P6SM BKN030


Raw METAR
KIAH 240025Z 13019KT 10SM SCT017 BKN032 BKN050 28/24 A2999 RMK AO2 PK WND 13026/0004 T02780244
KIAH 232353Z 13019G23KT 10SM BKN020 BKN050 28/24 A2999 RMK AO2 SLP153 BKN020 V SCT 60000 T02830244 10311 20283 57003
KIAH 232253Z 13019G27KT 10SM BKN020 BKN050 28/24 A2999 RMK AO2 PK WND 14027/2249 SLP154 BKN020 V SCT T02830244
KIAH 232153Z 14018G25KT 10SM BKN022 BKN045 29/25 A2999 RMK AO2 SLP155 TCU DSNT NW T02890250

METAR Board
Radar Display
Forecast Discussion
For situational awareness. Not to be used for flight planning purposes.